sensor_id;sensor_type;location;lat;lon;timestamp;temperature;humidity
64654;DHT22;51065;48.884;12.598;2023-09-12T00:01:08;16.30;99.90
64654;DHT22;51065;48.884;12.598;2023-09-12T00:03:34;16.30;99.90
64654;DHT22;51065;48.884;12.598;2023-09-12T00:06:00;16.30;99.90
64654;DHT22;51065;48.884;12.598;2023-09-12T00:08:26;16.20;99.90
64654;DHT22;51065;48.884;12.598;2023-09-12T00:11:01;16.20;99.90
64654;DHT22;51065;48.884;12.598;2023-09-12T00:13:27;16.00;99.90
64654;DHT22;51065;48.884;12.598;2023-09-12T00:15:52;15.90;99.90
64654;DHT22;51065;48.884;12.598;2023-09-12T00:18:18;15.80;99.90
64654;DHT22;51065;48.884;12.598;2023-09-12T00:20:43;15.70;99.90
64654;DHT22;51065;48.884;12.598;2023-09-12T00:23:09;15.60;99.90
64654;DHT22;51065;48.884;12.598;2023-09-12T00:25:34;15.50;99.90
64654;DHT22;51065;48.884;12.598;2023-09-12T00:28:00;15.50;99.90
64654;DHT22;51065;48.884;12.598;2023-09-12T00:30:25;15.40;99.90
64654;DHT22;51065;48.884;12.598;2023-09-12T00:32:51;15.40;99.90
64654;DHT22;51065;48.884;12.598;2023-09-12T00:35:16;15.40;99.90
64654;DHT22;51065;48.884;12.598;2023-09-12T00:37:41;15.30;99.90
64654;DHT22;51065;48.884;12.598;2023-09-12T00:40:07;15.30;99.90
64654;DHT22;51065;48.884;12.598;2023-09-12T00:42:32;15.20;99.90
64654;DHT22;51065;48.884;12.598;2023-09-12T00:44:58;15.20;99.90
64654;DHT22;51065;48.884;12.598;2023-09-12T00:47:24;15.20;99.90
64654;DHT22;51065;48.884;12.598;2023-09-12T00:49:51;15.20;99.90
64654;DHT22;51065;48.884;12.598;2023-09-12T00:52:16;15.20;99.90
64654;DHT22;51065;48.884;12.598;2023-09-12T00:54:43;15.20;99.90
64654;DHT22;51065;48.884;12.598;2023-09-12T00:57:08;15.20;99.90
64654;DHT22;51065;48.884;12.598;2023-09-12T00:59:34;15.20;99.90
64654;DHT22;51065;48.884;12.598;2023-09-12T01:02:00;15.20;99.90
64654;DHT22;51065;48.884;12.598;2023-09-12T01:04:26;15.20;99.90
64654;DHT22;51065;48.884;12.598;2023-09-12T01:06:52;15.10;99.90
64654;DHT22;51065;48.884;12.598;2023-09-12T01:09:18;15.10;99.90
64654;DHT22;51065;48.884;12.598;2023-09-12T01:11:44;15.00;99.90
64654;DHT22;51065;48.884;12.598;2023-09-12T01:14:09;15.00;99.90
64654;DHT22;51065;48.884;12.598;2023-09-12T01:16:35;15.00;99.90
64654;DHT22;51065;48.884;12.598;2023-09-12T01:19:00;15.00;99.90
64654;DHT22;51065;48.884;12.598;2023-09-12T01:26:49;14.90;99.90
64654;DHT22;51065;48.884;12.598;2023-09-12T01:29:16;14.90;99.90
64654;DHT22;51065;48.884;12.598;2023-09-12T01:31:43;14.90;99.90
64654;DHT22;51065;48.884;12.598;2023-09-12T01:34:10;14.90;99.90
64654;DHT22;51065;48.884;12.598;2023-09-12T01:36:36;14.90;99.90
64654;DHT22;51065;48.884;12.598;2023-09-12T01:39:01;14.90;99.90
64654;DHT22;51065;48.884;12.598;2023-09-12T01:41:27;14.90;99.90
64654;DHT22;51065;48.884;12.598;2023-09-12T01:43:54;14.90;99.90
64654;DHT22;51065;48.884;12.598;2023-09-12T01:46:20;14.90;99.90
64654;DHT22;51065;48.884;12.598;2023-09-12T01:48:46;14.80;99.90
64654;DHT22;51065;48.884;12.598;2023-09-12T01:51:16;14.90;99.90
64654;DHT22;51065;48.884;12.598;2023-09-12T01:53:42;14.90;99.90
64654;DHT22;51065;48.884;12.598;2023-09-12T01:56:09;14.80;99.90
64654;DHT22;51065;48.884;12.598;2023-09-12T01:58:35;14.80;99.90
64654;DHT22;51065;48.884;12.598;2023-09-12T02:01:00;14.80;99.90
64654;DHT22;51065;48.884;12.598;2023-09-12T02:03:26;14.80;99.90
64654;DHT22;51065;48.884;12.598;2023-09-12T02:05:51;14.80;99.90
64654;DHT22;51065;48.884;12.598;2023-09-12T02:08:16;14.80;99.90
64654;DHT22;51065;48.884;12.598;2023-09-12T02:10:42;14.80;99.90
64654;DHT22;51065;48.884;12.598;2023-09-12T02:13:07;14.80;99.90
64654;DHT22;51065;48.884;12.598;2023-09-12T02:15:33;14.90;99.90
64654;DHT22;51065;48.884;12.598;2023-09-12T02:17:58;14.80;99.90
64654;DHT22;51065;48.884;12.598;2023-09-12T02:20:24;14.80;99.90
64654;DHT22;51065;48.884;12.598;2023-09-12T02:22:50;14.70;99.90
64654;DHT22;51065;48.884;12.598;2023-09-12T02:25:15;14.70;99.90
64654;DHT22;51065;48.884;12.598;2023-09-12T02:27:41;14.70;99.90
64654;DHT22;51065;48.884;12.598;2023-09-12T02:30:06;14.70;99.90
64654;DHT22;51065;48.884;12.598;2023-09-12T02:32:32;14.70;99.90
64654;DHT22;51065;48.884;12.598;2023-09-12T02:34:57;14.70;99.90
64654;DHT22;51065;48.884;12.598;2023-09-12T02:37:23;14.60;99.90
64654;DHT22;51065;48.884;12.598;2023-09-12T02:39:49;14.60;99.90
64654;DHT22;51065;48.884;12.598;2023-09-12T02:42:14;14.60;99.90
64654;DHT22;51065;48.884;12.598;2023-09-12T02:44:40;14.50;99.90
64654;DHT22;51065;48.884;12.598;2023-09-12T02:47:05;14.50;99.90
64654;DHT22;51065;48.884;12.598;2023-09-12T02:49:31;14.40;99.90
64654;DHT22;51065;48.884;12.598;2023-09-12T02:51:57;14.40;99.90
64654;DHT22;51065;48.884;12.598;2023-09-12T02:54:25;14.40;99.90
64654;DHT22;51065;48.884;12.598;2023-09-12T02:56:50;14.40;99.90
64654;DHT22;51065;48.884;12.598;2023-09-12T02:59:16;14.40;99.90
64654;DHT22;51065;48.884;12.598;2023-09-12T03:01:41;14.40;99.90
64654;DHT22;51065;48.884;12.598;2023-09-12T03:04:07;14.30;99.90
64654;DHT22;51065;48.884;12.598;2023-09-12T03:06:32;14.30;99.90
64654;DHT22;51065;48.884;12.598;2023-09-12T03:08:58;14.20;99.90
64654;DHT22;51065;48.884;12.598;2023-09-12T03:11:27;14.20;99.90
64654;DHT22;51065;48.884;12.598;2023-09-12T03:13:55;14.10;99.90
64654;DHT22;51065;48.884;12.598;2023-09-12T03:16:21;14.10;99.90
64654;DHT22;51065;48.884;12.598;2023-09-12T03:18:48;14.20;99.90
64654;DHT22;51065;48.884;12.598;2023-09-12T03:21:13;14.20;99.90
64654;DHT22;51065;48.884;12.598;2023-09-12T03:23:39;14.20;99.90
64654;DHT22;51065;48.884;12.598;2023-09-12T03:26:05;14.20;99.90
64654;DHT22;51065;48.884;12.598;2023-09-12T03:28:30;14.20;99.90
64654;DHT22;51065;48.884;12.598;2023-09-12T03:31:12;14.20;99.90
64654;DHT22;51065;48.884;12.598;2023-09-12T03:33:39;14.20;99.90
64654;DHT22;51065;48.884;12.598;2023-09-12T03:36:05;14.20;99.90
64654;DHT22;51065;48.884;12.598;2023-09-12T03:38:31;14.10;99.90
64654;DHT22;51065;48.884;12.598;2023-09-12T03:40:57;14.10;99.90
64654;DHT22;51065;48.884;12.598;2023-09-12T03:43:22;14.10;99.90
64654;DHT22;51065;48.884;12.598;2023-09-12T03:45:48;14.00;99.90
64654;DHT22;51065;48.884;12.598;2023-09-12T03:48:14;14.10;99.90
64654;DHT22;51065;48.884;12.598;2023-09-12T03:50:39;14.10;99.90
64654;DHT22;51065;48.884;12.598;2023-09-12T03:53:05;14.10;99.90
64654;DHT22;51065;48.884;12.598;2023-09-12T03:55:30;14.10;99.90
64654;DHT22;51065;48.884;12.598;2023-09-12T03:57:56;14.10;99.90
64654;DHT22;51065;48.884;12.598;2023-09-12T04:00:21;14.10;99.90
64654;DHT22;51065;48.884;12.598;2023-09-12T04:02:47;14.10;99.90
64654;DHT22;51065;48.884;12.598;2023-09-12T04:05:13;14.10;99.90
64654;DHT22;51065;48.884;12.598;2023-09-12T04:07:39;14.00;99.90
64654;DHT22;51065;48.884;12.598;2023-09-12T04:10:04;13.90;99.90
64654;DHT22;51065;48.884;12.598;2023-09-12T04:12:30;13.90;99.90
64654;DHT22;51065;48.884;12.598;2023-09-12T04:14:55;13.80;99.90
64654;DHT22;51065;48.884;12.598;2023-09-12T04:17:21;13.80;99.90
64654;DHT22;51065;48.884;12.598;2023-09-12T04:19:46;13.80;99.90
64654;DHT22;51065;48.884;12.598;2023-09-12T04:22:11;13.80;99.90
64654;DHT22;51065;48.884;12.598;2023-09-12T04:24:37;13.80;99.90
64654;DHT22;51065;48.884;12.598;2023-09-12T04:27:02;13.70;99.90
64654;DHT22;51065;48.884;12.598;2023-09-12T04:29:28;13.70;99.90
64654;DHT22;51065;48.884;12.598;2023-09-12T04:31:54;13.70;99.90
64654;DHT22;51065;48.884;12.598;2023-09-12T04:34:27;13.60;99.90
64654;DHT22;51065;48.884;12.598;2023-09-12T04:36:53;13.60;99.90
64654;DHT22;51065;48.884;12.598;2023-09-12T04:39:18;13.60;99.90
64654;DHT22;51065;48.884;12.598;2023-09-12T04:41:44;13.70;99.90
64654;DHT22;51065;48.884;12.598;2023-09-12T04:44:10;13.80;99.90
64654;DHT22;51065;48.884;12.598;2023-09-12T04:46:35;13.90;99.90
64654;DHT22;51065;48.884;12.598;2023-09-12T04:49:01;14.00;99.90
64654;DHT22;51065;48.884;12.598;2023-09-12T04:51:27;14.00;99.90
64654;DHT22;51065;48.884;12.598;2023-09-12T04:53:52;14.10;99.90
64654;DHT22;51065;48.884;12.598;2023-09-12T04:56:18;14.10;99.90
64654;DHT22;51065;48.884;12.598;2023-09-12T04:58:43;14.20;99.90
64654;DHT22;51065;48.884;12.598;2023-09-12T05:01:09;14.20;99.90
64654;DHT22;51065;48.884;12.598;2023-09-12T05:03:34;14.30;99.90
64654;DHT22;51065;48.884;12.598;2023-09-12T05:06:00;14.30;99.90
64654;DHT22;51065;48.884;12.598;2023-09-12T05:08:25;14.30;99.90
64654;DHT22;51065;48.884;12.598;2023-09-12T05:10:51;14.40;99.90
64654;DHT22;51065;48.884;12.598;2023-09-12T05:13:16;14.50;99.90
64654;DHT22;51065;48.884;12.598;2023-09-12T05:15:42;14.50;99.90
64654;DHT22;51065;48.884;12.598;2023-09-12T05:18:07;14.60;99.90
64654;DHT22;51065;48.884;12.598;2023-09-12T05:20:33;14.80;99.90
64654;DHT22;51065;48.884;12.598;2023-09-12T05:22:59;14.90;99.90
64654;DHT22;51065;48.884;12.598;2023-09-12T05:25:25;15.00;99.90
64654;DHT22;51065;48.884;12.598;2023-09-12T05:27:52;15.10;99.90
64654;DHT22;51065;48.884;12.598;2023-09-12T05:30:17;15.20;99.90
64654;DHT22;51065;48.884;12.598;2023-09-12T05:32:43;15.30;99.90
64654;DHT22;51065;48.884;12.598;2023-09-12T05:35:08;15.40;99.90
64654;DHT22;51065;48.884;12.598;2023-09-12T05:37:34;15.50;99.90
64654;DHT22;51065;48.884;12.598;2023-09-12T05:39:59;15.70;99.90
64654;DHT22;51065;48.884;12.598;2023-09-12T05:42:25;16.00;99.90
64654;DHT22;51065;48.884;12.598;2023-09-12T05:44:50;16.20;99.90
64654;DHT22;51065;48.884;12.598;2023-09-12T05:47:19;16.20;99.90
64654;DHT22;51065;48.884;12.598;2023-09-12T05:49:45;16.30;99.90
64654;DHT22;51065;48.884;12.598;2023-09-12T05:52:10;16.40;99.90
64654;DHT22;51065;48.884;12.598;2023-09-12T05:54:36;16.70;99.90
64654;DHT22;51065;48.884;12.598;2023-09-12T05:57:02;17.00;99.90
64654;DHT22;51065;48.884;12.598;2023-09-12T05:59:28;17.30;99.90
64654;DHT22;51065;48.884;12.598;2023-09-12T06:01:53;17.70;99.90
64654;DHT22;51065;48.884;12.598;2023-09-12T06:04:19;18.00;99.90
64654;DHT22;51065;48.884;12.598;2023-09-12T06:06:45;18.40;99.90
64654;DHT22;51065;48.884;12.598;2023-09-12T06:09:11;18.80;99.90
64654;DHT22;51065;48.884;12.598;2023-09-12T06:11:36;19.10;99.90
64654;DHT22;51065;48.884;12.598;2023-09-12T06:14:06;19.50;99.90
64654;DHT22;51065;48.884;12.598;2023-09-12T06:16:31;20.00;99.90
64654;DHT22;51065;48.884;12.598;2023-09-12T06:18:57;20.50;99.90
64654;DHT22;51065;48.884;12.598;2023-09-12T06:21:22;20.80;99.90
64654;DHT22;51065;48.884;12.598;2023-09-12T06:24:00;20.70;99.90
64654;DHT22;51065;48.884;12.598;2023-09-12T06:26:32;20.70;99.90
64654;DHT22;51065;48.884;12.598;2023-09-12T06:28:58;20.70;99.90
64654;DHT22;51065;48.884;12.598;2023-09-12T06:31:24;20.80;99.90
64654;DHT22;51065;48.884;12.598;2023-09-12T06:33:49;21.20;99.90
64654;DHT22;51065;48.884;12.598;2023-09-12T06:36:15;21.80;99.90
64654;DHT22;51065;48.884;12.598;2023-09-12T06:38:40;22.10;99.90
64654;DHT22;51065;48.884;12.598;2023-09-12T06:41:06;22.50;99.90
64654;DHT22;51065;48.884;12.598;2023-09-12T06:43:31;22.90;99.90
64654;DHT22;51065;48.884;12.598;2023-09-12T06:45:56;23.10;99.90
64654;DHT22;51065;48.884;12.598;2023-09-12T06:48:22;23.50;99.90
64654;DHT22;51065;48.884;12.598;2023-09-12T06:50:47;23.80;99.90
64654;DHT22;51065;48.884;12.598;2023-09-12T06:53:13;23.60;99.90
64654;DHT22;51065;48.884;12.598;2023-09-12T06:55:39;23.00;99.90
64654;DHT22;51065;48.884;12.598;2023-09-12T06:58:04;22.80;99.90
64654;DHT22;51065;48.884;12.598;2023-09-12T07:00:30;22.50;99.90
64654;DHT22;51065;48.884;12.598;2023-09-12T07:02:56;22.70;99.90
64654;DHT22;51065;48.884;12.598;2023-09-12T07:05:22;22.60;99.90
64654;DHT22;51065;48.884;12.598;2023-09-12T07:07:47;22.90;99.90
64654;DHT22;51065;48.884;12.598;2023-09-12T07:10:13;22.80;99.90
64654;DHT22;51065;48.884;12.598;2023-09-12T07:12:38;23.40;99.90
64654;DHT22;51065;48.884;12.598;2023-09-12T07:15:04;24.10;99.90
64654;DHT22;51065;48.884;12.598;2023-09-12T07:17:29;24.20;99.90
64654;DHT22;51065;48.884;12.598;2023-09-12T07:19:55;24.10;99.90
64654;DHT22;51065;48.884;12.598;2023-09-12T07:22:21;24.30;99.90
64654;DHT22;51065;48.884;12.598;2023-09-12T07:24:46;24.50;99.90
64654;DHT22;51065;48.884;12.598;2023-09-12T07:27:12;24.50;99.90
64654;DHT22;51065;48.884;12.598;2023-09-12T07:29:37;24.80;99.90
64654;DHT22;51065;48.884;12.598;2023-09-12T07:32:03;24.90;99.90
64654;DHT22;51065;48.884;12.598;2023-09-12T07:34:28;25.20;99.90
64654;DHT22;51065;48.884;12.598;2023-09-12T07:36:54;25.30;99.90
64654;DHT22;51065;48.884;12.598;2023-09-12T07:39:19;25.10;99.90
64654;DHT22;51065;48.884;12.598;2023-09-12T07:41:45;25.50;99.90
64654;DHT22;51065;48.884;12.598;2023-09-12T07:44:11;25.60;99.90
64654;DHT22;51065;48.884;12.598;2023-09-12T07:46:37;25.70;99.90
64654;DHT22;51065;48.884;12.598;2023-09-12T07:49:02;25.50;99.90
64654;DHT22;51065;48.884;12.598;2023-09-12T07:51:28;25.20;99.90
64654;DHT22;51065;48.884;12.598;2023-09-12T07:53:53;25.20;99.90
64654;DHT22;51065;48.884;12.598;2023-09-12T07:56:19;25.20;99.90
64654;DHT22;51065;48.884;12.598;2023-09-12T07:58:45;25.70;99.90
64654;DHT22;51065;48.884;12.598;2023-09-12T08:01:10;25.90;99.90
64654;DHT22;51065;48.884;12.598;2023-09-12T08:03:36;26.20;99.90
64654;DHT22;51065;48.884;12.598;2023-09-12T08:06:03;26.60;99.90
64654;DHT22;51065;48.884;12.598;2023-09-12T08:08:29;27.00;99.90
64654;DHT22;51065;48.884;12.598;2023-09-12T08:10:55;27.30;99.90
64654;DHT22;51065;48.884;12.598;2023-09-12T08:13:22;27.20;99.90
64654;DHT22;51065;48.884;12.598;2023-09-12T08:15:47;27.20;99.90
64654;DHT22;51065;48.884;12.598;2023-09-12T08:18:13;27.20;99.90
64654;DHT22;51065;48.884;12.598;2023-09-12T08:20:38;27.30;99.90
64654;DHT22;51065;48.884;12.598;2023-09-12T08:23:04;27.80;99.90
64654;DHT22;51065;48.884;12.598;2023-09-12T08:25:29;27.90;99.90
64654;DHT22;51065;48.884;12.598;2023-09-12T08:27:55;28.20;99.90
64654;DHT22;51065;48.884;12.598;2023-09-12T08:30:21;28.70;99.90
64654;DHT22;51065;48.884;12.598;2023-09-12T08:32:47;28.60;99.90
64654;DHT22;51065;48.884;12.598;2023-09-12T08:35:12;28.70;99.90
64654;DHT22;51065;48.884;12.598;2023-09-12T08:37:41;28.50;99.90
64654;DHT22;51065;48.884;12.598;2023-09-12T08:40:07;28.60;99.90
64654;DHT22;51065;48.884;12.598;2023-09-12T08:42:44;28.70;99.90
64654;DHT22;51065;48.884;12.598;2023-09-12T08:45:13;29.10;99.90
64654;DHT22;51065;48.884;12.598;2023-09-12T08:47:40;29.60;99.90
64654;DHT22;51065;48.884;12.598;2023-09-12T08:50:07;29.50;99.90
64654;DHT22;51065;48.884;12.598;2023-09-12T08:52:34;29.90;99.90
64654;DHT22;51065;48.884;12.598;2023-09-12T08:54:59;30.20;99.90
64654;DHT22;51065;48.884;12.598;2023-09-12T08:57:25;30.40;99.90
64654;DHT22;51065;48.884;12.598;2023-09-12T08:59:50;30.40;99.90
64654;DHT22;51065;48.884;12.598;2023-09-12T09:02:17;30.60;99.60
64654;DHT22;51065;48.884;12.598;2023-09-12T09:04:42;31.00;97.50
64654;DHT22;51065;48.884;12.598;2023-09-12T09:07:09;31.10;95.90
64654;DHT22;51065;48.884;12.598;2023-09-12T09:09:35;31.20;95.60
64654;DHT22;51065;48.884;12.598;2023-09-12T09:12:01;30.80;97.90
64654;DHT22;51065;48.884;12.598;2023-09-12T09:14:28;30.50;97.90
64654;DHT22;51065;48.884;12.598;2023-09-12T09:16:54;30.50;99.90
64654;DHT22;51065;48.884;12.598;2023-09-12T09:19:20;30.20;99.90
64654;DHT22;51065;48.884;12.598;2023-09-12T09:21:45;30.60;99.30
64654;DHT22;51065;48.884;12.598;2023-09-12T09:24:12;30.80;98.10
64654;DHT22;51065;48.884;12.598;2023-09-12T09:26:48;30.90;98.20
64654;DHT22;51065;48.884;12.598;2023-09-12T09:31:41;30.50;99.90
64654;DHT22;51065;48.884;12.598;2023-09-12T09:34:11;30.10;99.30
64654;DHT22;51065;48.884;12.598;2023-09-12T09:36:40;30.30;99.90
64654;DHT22;51065;48.884;12.598;2023-09-12T09:39:05;30.50;99.80
64654;DHT22;51065;48.884;12.598;2023-09-12T09:41:31;30.60;97.30
64654;DHT22;51065;48.884;12.598;2023-09-12T09:43:58;31.00;97.00
64654;DHT22;51065;48.884;12.598;2023-09-12T09:46:25;31.20;94.10
64654;DHT22;51065;48.884;12.598;2023-09-12T09:48:51;31.20;93.70
64654;DHT22;51065;48.884;12.598;2023-09-12T09:51:17;30.80;99.30
64654;DHT22;51065;48.884;12.598;2023-09-12T09:53:42;30.80;95.60
64654;DHT22;51065;48.884;12.598;2023-09-12T09:56:10;31.30;91.50
64654;DHT22;51065;48.884;12.598;2023-09-12T09:58:37;31.30;96.50
64654;DHT22;51065;48.884;12.598;2023-09-12T10:01:02;31.90;86.40
64654;DHT22;51065;48.884;12.598;2023-09-12T10:03:29;32.20;86.00
64654;DHT22;51065;48.884;12.598;2023-09-12T10:05:55;31.90;92.90
64654;DHT22;51065;48.884;12.598;2023-09-12T10:08:22;31.90;79.50
64654;DHT22;51065;48.884;12.598;2023-09-12T10:10:49;31.70;84.10
64654;DHT22;51065;48.884;12.598;2023-09-12T10:13:15;32.10;75.90
64654;DHT22;51065;48.884;12.598;2023-09-12T10:15:42;31.90;89.50
64654;DHT22;51065;48.884;12.598;2023-09-12T10:18:08;31.80;82.00
64654;DHT22;51065;48.884;12.598;2023-09-12T10:20:38;32.20;71.90
64654;DHT22;51065;48.884;12.598;2023-09-12T10:25:35;32.20;78.90
64654;DHT22;51065;48.884;12.598;2023-09-12T10:28:01;32.00;82.20
64654;DHT22;51065;48.884;12.598;2023-09-12T10:30:27;32.10;82.20
64654;DHT22;51065;48.884;12.598;2023-09-12T10:32:53;32.70;74.40
64654;DHT22;51065;48.884;12.598;2023-09-12T10:35:19;33.10;71.90
64654;DHT22;51065;48.884;12.598;2023-09-12T10:37:44;33.70;64.90
64654;DHT22;51065;48.884;12.598;2023-09-12T10:40:11;34.10;58.70
64654;DHT22;51065;48.884;12.598;2023-09-12T10:42:39;34.00;59.50
64654;DHT22;51065;48.884;12.598;2023-09-12T10:45:05;33.90;62.20
64654;DHT22;51065;48.884;12.598;2023-09-12T10:47:32;34.20;58.80
64654;DHT22;51065;48.884;12.598;2023-09-12T10:49:58;34.20;60.40
64654;DHT22;51065;48.884;12.598;2023-09-12T10:52:24;34.50;58.20
64654;DHT22;51065;48.884;12.598;2023-09-12T10:54:50;34.20;57.80
64654;DHT22;51065;48.884;12.598;2023-09-12T10:57:16;34.00;58.00
64654;DHT22;51065;48.884;12.598;2023-09-12T11:02:30;33.60;63.90
64654;DHT22;51065;48.884;12.598;2023-09-12T11:04:56;33.60;59.70
64654;DHT22;51065;48.884;12.598;2023-09-12T11:10:16;33.40;58.40
64654;DHT22;51065;48.884;12.598;2023-09-12T11:12:51;33.50;60.10
64654;DHT22;51065;48.884;12.598;2023-09-12T11:15:17;33.30;61.10
64654;DHT22;51065;48.884;12.598;2023-09-12T11:17:43;33.90;64.20
64654;DHT22;51065;48.884;12.598;2023-09-12T11:20:09;34.00;57.60
64654;DHT22;51065;48.884;12.598;2023-09-12T11:22:39;33.70;63.30
64654;DHT22;51065;48.884;12.598;2023-09-12T11:25:26;33.80;58.50
64654;DHT22;51065;48.884;12.598;2023-09-12T11:30:20;34.30;60.00
64654;DHT22;51065;48.884;12.598;2023-09-12T11:32:46;34.40;55.30
64654;DHT22;51065;48.884;12.598;2023-09-12T11:35:13;34.60;53.50
64654;DHT22;51065;48.884;12.598;2023-09-12T11:37:40;33.80;58.00
64654;DHT22;51065;48.884;12.598;2023-09-12T11:42:41;34.60;53.20
64654;DHT22;51065;48.884;12.598;2023-09-12T11:45:08;34.60;57.10
64654;DHT22;51065;48.884;12.598;2023-09-12T11:47:33;34.80;53.90
64654;DHT22;51065;48.884;12.598;2023-09-12T11:49:59;35.30;50.20
64654;DHT22;51065;48.884;12.598;2023-09-12T11:52:24;35.10;50.30
64654;DHT22;51065;48.884;12.598;2023-09-12T11:54:50;35.20;49.00
64654;DHT22;51065;48.884;12.598;2023-09-12T11:57:15;34.50;51.30
64654;DHT22;51065;48.884;12.598;2023-09-12T11:59:43;34.80;52.00
64654;DHT22;51065;48.884;12.598;2023-09-12T12:02:10;34.80;50.80
64654;DHT22;51065;48.884;12.598;2023-09-12T12:04:36;35.30;51.40
64654;DHT22;51065;48.884;12.598;2023-09-12T12:07:02;35.00;50.80
64654;DHT22;51065;48.884;12.598;2023-09-12T12:09:30;35.00;50.10
64654;DHT22;51065;48.884;12.598;2023-09-12T12:11:56;35.70;48.00
64654;DHT22;51065;48.884;12.598;2023-09-12T12:14:25;36.10;45.90
64654;DHT22;51065;48.884;12.598;2023-09-12T12:16:51;36.10;47.20
64654;DHT22;51065;48.884;12.598;2023-09-12T12:19:17;35.70;47.20
64654;DHT22;51065;48.884;12.598;2023-09-12T12:21:43;36.00;46.20
64654;DHT22;51065;48.884;12.598;2023-09-12T12:24:13;35.70;47.50
64654;DHT22;51065;48.884;12.598;2023-09-12T12:26:41;35.20;47.00
64654;DHT22;51065;48.884;12.598;2023-09-12T12:29:08;34.90;48.50
64654;DHT22;51065;48.884;12.598;2023-09-12T12:31:37;34.50;54.70
64654;DHT22;51065;48.884;12.598;2023-09-12T12:34:02;34.40;51.40
64654;DHT22;51065;48.884;12.598;2023-09-12T12:36:29;34.00;51.10
64654;DHT22;51065;48.884;12.598;2023-09-12T12:38:54;33.60;57.60
64654;DHT22;51065;48.884;12.598;2023-09-12T12:43:49;33.40;55.00
64654;DHT22;51065;48.884;12.598;2023-09-12T12:46:15;33.20;54.10
64654;DHT22;51065;48.884;12.598;2023-09-12T12:48:42;32.60;61.80
64654;DHT22;51065;48.884;12.598;2023-09-12T12:56:04;32.20;59.60
64654;DHT22;51065;48.884;12.598;2023-09-12T12:58:29;32.10;60.50
64654;DHT22;51065;48.884;12.598;2023-09-12T13:00:55;32.10;65.40
64654;DHT22;51065;48.884;12.598;2023-09-12T13:03:20;32.00;62.20
64654;DHT22;51065;48.884;12.598;2023-09-12T13:05:46;32.10;62.80
64654;DHT22;51065;48.884;12.598;2023-09-12T13:08:11;31.90;65.40
64654;DHT22;51065;48.884;12.598;2023-09-12T13:10:37;31.80;64.10
64654;DHT22;51065;48.884;12.598;2023-09-12T13:13:02;31.90;68.50
64654;DHT22;51065;48.884;12.598;2023-09-12T13:15:29;32.30;61.80
64654;DHT22;51065;48.884;12.598;2023-09-12T13:17:54;32.70;61.50
64654;DHT22;51065;48.884;12.598;2023-09-12T13:20:20;33.40;57.00
64654;DHT22;51065;48.884;12.598;2023-09-12T13:22:45;33.40;55.90
64654;DHT22;51065;48.884;12.598;2023-09-12T13:25:11;33.20;55.60
64654;DHT22;51065;48.884;12.598;2023-09-12T13:27:37;33.30;58.20
64654;DHT22;51065;48.884;12.598;2023-09-12T13:30:02;33.00;59.30
64654;DHT22;51065;48.884;12.598;2023-09-12T13:32:29;33.40;55.40
64654;DHT22;51065;48.884;12.598;2023-09-12T13:34:55;33.00;52.60
64654;DHT22;51065;48.884;12.598;2023-09-12T13:37:20;33.00;55.00
64654;DHT22;51065;48.884;12.598;2023-09-12T13:39:46;32.80;54.60
64654;DHT22;51065;48.884;12.598;2023-09-12T13:42:14;32.40;55.50
64654;DHT22;51065;48.884;12.598;2023-09-12T13:44:43;32.40;59.90
64654;DHT22;51065;48.884;12.598;2023-09-12T13:47:09;32.20;59.30
64654;DHT22;51065;48.884;12.598;2023-09-12T13:49:34;32.40;59.70
64654;DHT22;51065;48.884;12.598;2023-09-12T13:52:00;32.50;63.30
64654;DHT22;51065;48.884;12.598;2023-09-12T13:54:25;32.40;58.20
64654;DHT22;51065;48.884;12.598;2023-09-12T13:56:51;32.00;58.20
64654;DHT22;51065;48.884;12.598;2023-09-12T13:59:16;32.00;60.80
64654;DHT22;51065;48.884;12.598;2023-09-12T14:01:45;31.70;58.90
64654;DHT22;51065;48.884;12.598;2023-09-12T14:04:11;31.30;71.00
64654;DHT22;51065;48.884;12.598;2023-09-12T14:06:36;31.10;82.40
64654;DHT22;51065;48.884;12.598;2023-09-12T14:09:02;30.80;64.20
64654;DHT22;51065;48.884;12.598;2023-09-12T14:11:27;30.70;68.60
64654;DHT22;51065;48.884;12.598;2023-09-12T14:13:53;31.00;67.60
64654;DHT22;51065;48.884;12.598;2023-09-12T14:16:18;31.30;64.40
64654;DHT22;51065;48.884;12.598;2023-09-12T14:18:44;31.60;61.10
64654;DHT22;51065;48.884;12.598;2023-09-12T14:21:09;31.60;64.00
64654;DHT22;51065;48.884;12.598;2023-09-12T14:23:34;31.30;64.20
64654;DHT22;51065;48.884;12.598;2023-09-12T14:26:00;31.50;68.80
64654;DHT22;51065;48.884;12.598;2023-09-12T14:28:25;31.60;61.10
64654;DHT22;51065;48.884;12.598;2023-09-12T14:30:53;31.60;66.00
64654;DHT22;51065;48.884;12.598;2023-09-12T14:33:19;31.90;67.00
64654;DHT22;51065;48.884;12.598;2023-09-12T14:35:44;32.20;61.60
64654;DHT22;51065;48.884;12.598;2023-09-12T14:38:10;32.40;57.70
64654;DHT22;51065;48.884;12.598;2023-09-12T14:40:35;32.40;56.80
64654;DHT22;51065;48.884;12.598;2023-09-12T14:43:01;32.40;58.50
64654;DHT22;51065;48.884;12.598;2023-09-12T14:45:27;32.50;56.40
64654;DHT22;51065;48.884;12.598;2023-09-12T14:47:53;32.70;54.30
64654;DHT22;51065;48.884;12.598;2023-09-12T14:50:21;32.70;57.40
64654;DHT22;51065;48.884;12.598;2023-09-12T14:52:48;32.80;52.40
64654;DHT22;51065;48.884;12.598;2023-09-12T14:55:14;32.50;57.00
64654;DHT22;51065;48.884;12.598;2023-09-12T14:57:41;32.60;58.90
64654;DHT22;51065;48.884;12.598;2023-09-12T15:00:06;32.70;56.90
64654;DHT22;51065;48.884;12.598;2023-09-12T15:02:32;32.70;56.90
64654;DHT22;51065;48.884;12.598;2023-09-12T15:04:58;32.40;56.00
64654;DHT22;51065;48.884;12.598;2023-09-12T15:07:23;31.80;54.20
64654;DHT22;51065;48.884;12.598;2023-09-12T15:09:50;31.50;59.90
64654;DHT22;51065;48.884;12.598;2023-09-12T15:12:15;31.10;61.00
64654;DHT22;51065;48.884;12.598;2023-09-12T15:14:41;31.20;61.10
64654;DHT22;51065;48.884;12.598;2023-09-12T15:17:06;31.20;62.50
64654;DHT22;51065;48.884;12.598;2023-09-12T15:19:32;31.20;60.50
64654;DHT22;51065;48.884;12.598;2023-09-12T15:21:57;30.90;70.30
64654;DHT22;51065;48.884;12.598;2023-09-12T15:24:23;30.80;66.80
64654;DHT22;51065;48.884;12.598;2023-09-12T15:26:48;30.70;66.80
64654;DHT22;51065;48.884;12.598;2023-09-12T15:29:14;30.70;66.90
64654;DHT22;51065;48.884;12.598;2023-09-12T15:31:39;30.40;70.80
64654;DHT22;51065;48.884;12.598;2023-09-12T15:34:05;30.30;70.30
64654;DHT22;51065;48.884;12.598;2023-09-12T15:36:35;29.80;71.90